Time;durP1;ratioP1;P1;durP2;ratioP2;P2;SDS_P1;SDS_P2;PMS_P1;PMS_P2;Temp;Humidity;BMP_temperature;BMP_pressure;BME280_temperature;BME280_humidity;BME280_pressure;Samples;Min_cycle;Max_cycle;Signal;HPM_P1;HPM_P2
2022/07/22 04:19:16;;;;;;;8.70;4.97;;;;;;;21.64;60.15;100489.06;5557839;32;255459;-86
2022/07/22 04:22:20;;;;;;;12.60;5.25;;;;;;;21.64;60.15;100489.06;5546233;32;33958;-86
2022/07/22 04:25:23;;;;;;;8.75;4.90;;;;;;;21.27;61.38;100491.53;5554631;32;32982;-86
2022/07/22 04:28:26;;;;;;;12.82;4.50;;;;;;;21.38;60.77;100493.22;5545502;32;34161;-86
2022/07/22 04:31:28;;;;;;;6.60;4.35;;;;;;;21.50;59.96;100501.16;5543746;32;34824;-86
2022/07/22 04:34:31;;;;;;;9.02;4.28;;;;;;;21.59;56.37;100497.59;5543076;32;33748;-87
2022/07/22 04:37:34;;;;;;;4.78;4.05;;;;;;;21.74;56.53;100489.06;5542995;32;33886;-87
2022/07/22 04:40:37;;;;;;;6.22;4.10;;;;;;;21.88;53.79;100491.28;5543327;32;33587;-87
2022/07/22 04:43:40;;;;;;;5.35;4.07;;;;;;;22.10;54.13;100480.25;5543412;32;34159;-87
2022/07/22 04:46:43;;;;;;;11.77;4.30;;;;;;;22.29;53.43;100488.28;5542788;32;33539;-87
2022/07/22 04:49:46;;;;;;;8.00;4.15;;;;;;;22.40;52.99;100494.44;5543079;32;33845;-87
2022/07/22 04:52:48;;;;;;;8.27;4.45;;;;;;;22.53;53.17;100486.84;5543418;32;33939;-87
2022/07/22 04:55:52;;;;;;;8.88;3.92;;;;;;;22.55;51.37;100487.56;5533372;32;34217;-87
2022/07/22 04:58:56;;;;;;;8.85;3.78;;;;;;;22.78;50.43;100497.09;5539401;32;34434;-87
2022/07/22 05:02:01;;;;;;;10.40;3.78;;;;;;;23.03;49.80;100495.47;5537650;32;33722;-87
2022/07/22 05:05:04;;;;;;;6.22;4.10;;;;;;;23.20;50.19;100493.75;5522770;32;33569;-89
2022/07/22 05:08:07;;;;;;;14.43;4.47;;;;;;;23.24;50.05;100491.59;5526638;32;32571;-91
2022/07/22 05:11:10;;;;;;;9.30;3.95;;;;;;;23.26;49.60;100492.28;5536240;32;33478;-91
2022/07/22 05:14:14;;;;;;;10.15;4.30;;;;;;;23.49;48.81;100498.06;5532481;32;33505;-91
2022/07/22 05:17:17;;;;;;;9.68;4.20;;;;;;;23.96;46.55;100490.56;5540134;32;32232;-88
2022/07/22 05:20:20;;;;;;;9.70;4.28;;;;;;;24.14;45.40;100490.47;5525883;32;35009;-88
2022/07/22 05:23:23;;;;;;;8.00;4.37;;;;;;;24.50;45.02;100484.84;5523434;32;34564;-88
2022/07/22 05:26:29;;;;;;;11.95;4.03;;;;;;;24.83;45.61;100491.41;5536519;32;33291;-88
2022/07/22 05:29:31;;;;;;;6.53;4.18;;;;;;;25.09;45.21;100502.09;5533841;32;33881;-88
2022/07/22 05:32:34;;;;;;;9.07;3.92;;;;;;;25.26;43.06;100489.38;5528036;32;32290;-87
2022/07/22 05:35:37;;;;;;;9.35;3.80;;;;;;;25.92;43.36;100498.44;5527834;32;34052;-87
2022/07/22 05:38:40;;;;;;;4.18;3.20;;;;;;;28.38;39.50;100496.88;5510970;32;33809;-87
2022/07/22 05:41:43;;;;;;;7.80;3.03;;;;;;;30.61;30.13;100493.94;5512924;32;32569;-88
2022/07/22 05:44:45;;;;;;;7.65;3.00;;;;;;;31.56;27.16;100497.63;5545255;32;34234;-87
2022/07/22 05:47:49;;;;;;;8.27;3.10;;;;;;;32.10;25.08;100499.41;5556551;32;35249;-88
2022/07/22 05:50:53;;;;;;;8.60;3.12;;;;;;;32.04;26.12;100500.28;5542630;32;35349;-88
2022/07/22 05:53:55;;;;;;;9.77;3.20;;;;;;;33.21;24.60;100506.62;5528295;32;33191;-88
2022/07/22 05:56:58;;;;;;;4.47;2.97;;;;;;;33.14;26.24;100503.09;5536271;32;33889;-89
2022/07/22 06:00:05;;;;;;;6.40;2.95;;;;;;;31.32;25.57;100507.38;5549366;32;34172;-88
2022/07/22 06:03:15;;;;;;;3.15;2.72;;;;;;;31.67;25.13;100504.34;5517417;32;32458;-89
2022/07/22 06:06:20;;;;;;;8.95;3.42;;;;;;;31.74;26.38;100509.84;5528030;32;33621;-88
2022/07/22 06:09:23;;;;;;;5.70;3.08;;;;;;;31.13;26.14;100511.75;5529824;32;33235;-89
2022/07/22 06:12:26;;;;;;;4.78;3.20;;;;;;;31.47;26.51;100518.06;5548538;32;34372;-89
2022/07/22 06:15:29;;;;;;;3.72;3.10;;;;;;;31.67;27.03;100518.06;5529725;32;33840;-89
2022/07/22 06:18:32;;;;;;;8.23;3.03;;;;;;;32.04;27.77;100514.00;5515552;32;32924;-89
2022/07/22 06:21:36;;;;;;;5.20;3.10;;;;;;;31.91;25.00;100514.91;5540476;32;33906;-89
2022/07/22 06:24:47;;;;;;;6.60;3.40;;;;;;;31.83;27.12;100516.75;5523773;32;33283;-89
2022/07/22 06:27:49;;;;;;;9.32;3.22;;;;;;;31.33;26.17;100511.78;5531051;32;34553;-88
2022/07/22 06:30:52;;;;;;;7.12;3.35;;;;;;;31.79;24.99;100509.19;5537980;32;35855;-88
2022/07/22 06:33:56;;;;;;;12.25;3.40;;;;;;;32.63;26.62;100506.56;5538404;32;34644;-89
2022/07/22 06:37:00;;;;;;;14.87;3.78;;;;;;;33.50;26.47;100517.16;5533591;32;33191;-88
2022/07/22 06:40:03;;;;;;;7.18;3.20;;;;;;;33.19;28.15;100511.50;5538923;32;34538;-88
2022/07/22 06:43:07;;;;;;;5.65;3.10;;;;;;;32.71;26.98;100508.22;5548941;32;34468;-88
2022/07/22 06:46:10;;;;;;;6.30;3.40;;;;;;;31.71;25.22;100511.09;5531957;32;34241;-88
2022/07/22 06:49:16;;;;;;;6.65;3.08;;;;;;;31.66;25.84;100515.53;5517590;32;33736;-89
2022/07/22 06:52:20;;;;;;;4.12;3.40;;;;;;;31.41;28.00;100514.31;5542977;32;33632;-88
2022/07/22 06:55:23;;;;;;;7.85;3.78;;;;;;;31.57;27.47;100514.94;5535424;32;33770;-89
2022/07/22 06:58:27;;;;;;;5.82;3.10;;;;;;;32.12;27.84;100511.84;5514178;32;32412;-88
2022/07/22 07:01:31;;;;;;;6.80;3.50;;;;;;;32.08;23.92;100505.09;5523887;32;32845;-88
2022/07/22 07:04:34;;;;;;;9.07;3.37;;;;;;;32.00;23.57;100502.63;5545601;32;33511;-88
2022/07/22 07:07:37;;;;;;;6.22;3.03;;;;;;;32.31;26.65;100508.41;5530264;32;34100;-89
2022/07/22 07:10:43;;;;;;;7.50;3.10;;;;;;;32.59;23.31;100499.84;5541019;32;33770;-87
2022/07/22 07:13:47;;;;;;;6.37;2.90;;;;;;;33.03;23.81;100507.41;5537072;32;32634;-89
2022/07/22 07:16:49;;;;;;;4.53;3.37;;;;;;;33.34;22.33;100500.19;5547237;32;34222;-88
2022/07/22 07:19:53;;;;;;;6.55;3.20;;;;;;;33.90;22.96;100499.41;5524235;32;32773;-89
2022/07/22 07:22:55;;;;;;;8.35;3.55;;;;;;;33.97;21.79;100500.19;5528243;32;34737;-88
2022/07/22 07:25:59;;;;;;;6.97;3.22;;;;;;;34.42;22.21;100499.00;5529657;32;33807;-89
2022/07/22 07:29:01;;;;;;;5.12;2.72;;;;;;;33.94;22.05;100500.66;5526477;32;32533;-87
2022/07/22 07:32:05;;;;;;;4.43;2.60;;;;;;;33.35;22.35;100501.84;5530269;32;33016;-88
2022/07/22 07:35:08;;;;;;;4.53;2.92;;;;;;;33.28;22.19;100493.66;5530862;32;33053;-88
2022/07/22 07:38:11;;;;;;;11.65;2.95;;;;;;;34.00;21.03;100492.31;5544346;32;35115;-88
2022/07/22 07:41:15;;;;;;;4.20;2.62;;;;;;;33.99;20.33;100495.31;5529521;32;34620;-87
2022/07/22 07:44:18;;;;;;;4.90;2.37;;;;;;;34.06;19.92;100490.59;5531564;32;34230;-87
2022/07/22 07:47:21;;;;;;;5.78;2.33;;;;;;;33.82;19.54;100493.16;5532491;32;34422;-87
2022/07/22 07:50:27;;;;;;;7.60;2.40;;;;;;;34.33;19.61;100492.16;5551300;32;34555;-88
2022/07/22 07:53:32;;;;;;;6.15;2.35;;;;;;;35.06;18.90;100492.16;5558586;32;33614;-87
2022/07/22 07:56:37;;;;;;;5.37;2.80;;;;;;;36.24;17.81;100489.62;5561157;32;35223;-88
2022/07/22 07:59:40;;;;;;;4.50;2.58;;;;;;;36.72;18.72;100487.47;5555853;32;32758;-87
2022/07/22 08:02:43;;;;;;;5.72;2.70;;;;;;;36.13;18.94;100492.16;5518975;32;33965;-87
2022/07/22 08:05:47;;;;;;;9.07;2.87;;;;;;;36.26;19.14;100491.00;5540911;32;34665;-88
2022/07/22 08:08:50;;;;;;;4.12;2.83;;;;;;;36.11;19.36;100479.69;5544182;32;34961;-87
2022/07/22 08:11:53;;;;;;;4.45;3.10;;;;;;;35.92;18.11;100484.50;5522653;32;32079;-87
2022/07/22 08:14:57;;;;;;;8.43;3.10;;;;;;;35.45;18.10;100488.97;5521715;32;33579;-88
2022/07/22 08:18:00;;;;;;;9.50;2.97;;;;;;;35.29;19.10;100485.84;5540871;32;33496;-87
2022/07/22 08:21:03;;;;;;;10.10;2.50;;;;;;;35.37;18.96;100481.06;5539794;32;34748;-87
2022/07/22 08:24:09;;;;;;;7.20;2.50;;;;;;;35.30;18.60;100484.75;5540517;32;33761;-88
2022/07/22 08:27:12;;;;;;;8.25;2.70;;;;;;;35.34;18.87;100483.22;5526487;32;32540;-87
2022/07/22 08:30:16;;;;;;;8.15;2.78;;;;;;;35.65;18.34;100487.78;5549995;32;34955;-87
2022/07/22 08:33:19;;;;;;;7.47;2.65;;;;;;;36.25;17.37;100480.25;5544820;32;32332;-88
2022/07/22 08:36:22;;;;;;;5.35;2.65;;;;;;;36.85;18.33;100483.53;5522487;32;34218;-89
2022/07/22 08:39:26;;;;;;;5.07;2.80;;;;;;;36.81;16.56;100477.69;5531433;32;33624;-88
2022/07/22 08:42:30;;;;;;;6.90;2.80;;;;;;;37.49;17.78;100481.53;5528675;32;34290;-88
2022/07/22 08:45:33;;;;;;;11.27;2.92;;;;;;;37.05;16.31;100471.19;5514903;32;33479;-87
2022/07/22 08:48:39;;;;;;;5.97;2.85;;;;;;;36.79;17.06;100473.50;5529289;32;33524;-87
2022/07/22 08:51:43;;;;;;;5.70;2.50;;;;;;;36.47;17.49;100482.28;5528119;32;34093;-88
2022/07/22 08:54:49;;;;;;;8.05;2.67;;;;;;;36.47;16.72;100488.66;5527216;32;33095;-88
2022/07/22 08:57:52;;;;;;;3.95;2.87;;;;;;;37.19;16.11;100480.81;5520958;32;32533;-88
2022/07/22 09:01:05;;;;;;;8.30;2.70;;;;;;;37.52;16.46;100481.03;5527234;32;33815;-89
2022/07/22 09:04:08;;;;;;;4.90;2.78;;;;;;;38.60;14.89;100480.69;5536451;32;33987;-88
2022/07/22 09:07:11;;;;;;;7.87;2.40;;;;;;;37.41;15.49;100477.28;5520461;32;33601;-89
2022/07/22 09:10:19;;;;;;;3.95;2.40;;;;;;;38.20;15.06;100476.41;5540586;32;35263;-91
2022/07/22 09:13:26;;;;;;;4.72;2.60;;;;;;;38.58;14.88;100465.44;5524211;32;33953;-89
2022/07/22 09:16:48;;;;;;;4.30;2.53;;;;;;;38.77;14.85;100463.13;5549521;32;34009;-87
2022/07/22 09:19:54;;;;;;;4.62;2.62;;;;;;;38.44;15.16;100465.03;5536056;32;33201;-88
2022/07/22 09:22:58;;;;;;;6.82;2.85;;;;;;;38.54;15.30;100459.59;5548347;32;35114;-87
2022/07/22 09:26:01;;;;;;;3.95;2.60;;;;;;;38.94;15.07;100463.81;5528819;32;34167;-88
2022/07/22 09:29:07;;;;;;;5.35;2.60;;;;;;;38.52;15.22;100457.03;5546774;32;33520;-88
2022/07/22 09:32:13;;;;;;;9.07;2.92;;;;;;;38.78;15.08;100457.31;5523054;32;32822;-88
2022/07/22 09:35:19;;;;;;;14.32;3.33;;;;;;;38.74;15.15;100458.94;5549157;32;34259;-87
2022/07/22 09:38:31;;;;;;;10.43;2.97;;;;;;;39.83;15.63;100459.69;5531992;32;32929;-89
2022/07/22 09:41:34;;;;;;;3.42;2.50;;;;;;;38.24;15.15;100459.00;5532274;32;33920;-88
2022/07/22 09:44:37;;;;;;;7.72;3.03;;;;;;;38.54;14.99;100454.91;5540725;32;34801;-88
2022/07/22 09:47:44;;;;;;;8.68;2.90;;;;;;;39.24;15.68;100452.41;5541963;32;34001;-87
2022/07/22 09:50:48;;;;;;;6.18;2.80;;;;;;;40.69;13.94;100453.81;5544258;32;34280;-88
2022/07/22 09:53:52;;;;;;;5.87;2.87;;;;;;;40.80;13.30;100454.63;5527404;32;33804;-88
2022/07/22 09:56:56;;;;;;;5.97;2.75;;;;;;;42.02;13.19;100441.81;5521613;32;32531;-88
2022/07/22 09:59:58;;;;;;;6.12;3.05;;;;;;;41.99;12.67;100436.84;5540673;32;33684;-88
2022/07/22 10:03:05;;;;;;;5.03;3.00;;;;;;;42.04;12.77;100438.75;5520541;32;32377;-88
2022/07/22 10:06:09;;;;;;;6.32;3.22;;;;;;;41.55;12.84;100432.84;5521819;32;33473;-88
2022/07/22 10:09:14;;;;;;;3.05;2.72;;;;;;;40.86;13.58;100437.97;5548492;32;36092;-87
2022/07/22 10:12:19;;;;;;;6.53;2.87;;;;;;;40.70;13.75;100421.25;5529108;32;32262;-89
2022/07/22 10:15:24;;;;;;;4.60;2.80;;;;;;;40.39;13.96;100433.22;5517683;32;34186;-87
2022/07/22 10:18:37;;;;;;;5.53;3.03;;;;;;;39.70;14.93;100426.84;5533193;32;33672;-87
2022/07/22 10:21:41;;;;;;;3.30;3.00;;;;;;;40.72;14.17;100424.63;5523487;32;32382;-89
2022/07/22 10:25:00;;;;;;;7.28;3.10;;;;;;;41.41;13.67;100415.91;5522832;32;32485;-89
2022/07/22 10:28:05;;;;;;;5.60;3.20;;;;;;;40.37;14.69;100415.16;5546326;26;34071;-92
2022/07/22 10:31:17;;;;;;;7.20;3.25;;;;;;;40.62;14.55;100407.94;5529399;32;33573;-88
2022/07/22 10:34:20;;;;;;;6.57;2.87;;;;;;;42.29;13.30;100411.88;5522624;32;33388;-88
2022/07/22 10:37:36;;;;;;;5.35;3.28;;;;;;;44.15;12.19;100411.00;5513301;32;34532;-88
2022/07/22 10:40:55;;;;;;;6.43;3.22;;;;;;;45.33;11.05;100407.28;5513547;32;32524;-88
2022/07/22 10:43:58;;;;;;;8.05;3.20;;;;;;;46.72;10.69;100406.37;5521904;32;34311;-86
2022/07/22 10:47:02;;;;;;;5.43;3.50;;;;;;;44.35;11.64;100403.44;5530361;32;33894;-87
2022/07/22 10:50:40;;;;;;;7.47;3.35;;;;;;;42.98;12.86;100405.47;5531505;32;33983;-90
2022/07/22 10:53:43;;;;;;;8.85;3.60;;;;;;;42.36;13.29;100398.44;5528924;32;32664;-87
2022/07/22 10:56:48;;;;;;;6.50;3.65;;;;;;;40.92;14.82;100395.16;5529131;32;33606;-86
2022/07/22 10:59:54;;;;;;;7.25;3.50;;;;;;;40.78;15.00;100390.16;5528914;32;33735;-86
2022/07/22 11:02:57;;;;;;;12.68;4.12;;;;;;;41.34;14.28;100388.41;5518443;32;32232;-87
2022/07/22 11:06:21;;;;;;;8.20;3.90;;;;;;;41.13;14.71;100382.03;5555875;26;33867;-86
2022/07/22 11:09:33;;;;;;;9.88;3.97;;;;;;;40.84;15.30;100382.66;5534322;32;33601;-86
2022/07/22 11:12:36;;;;;;;11.85;3.87;;;;;;;41.57;15.20;100377.69;5533308;32;35118;-86
2022/07/22 11:15:39;;;;;;;9.35;3.87;;;;;;;42.72;14.31;100379.75;5549052;32;35215;-86
2022/07/22 11:18:52;;;;;;;9.25;3.80;;;;;;;43.48;13.42;100376.44;5549350;32;33603;-86
2022/07/22 11:21:58;;;;;;;7.10;4.10;;;;;;;42.55;13.55;100379.09;5535463;32;32736;-91
2022/07/22 11:25:07;;;;;;;6.68;4.03;;;;;;;41.66;14.29;100366.00;5549750;32;34479;-87
2022/07/22 11:28:10;;;;;;;;;;;;;;;40.80;16.06;100362.03;5534412;32;32431;-87
2022/07/22 11:31:17;;;;;;;6.10;3.97;;;;;;;41.58;14.70;100367.41;5547480;32;35254;-87
2022/07/22 11:34:22;;;;;;;7.53;4.20;;;;;;;40.49;16.08;100360.13;5546403;32;34066;-89
2022/07/22 11:44:48;;;;;;;7.72;4.40;;;;;;;40.27;16.52;100350.09;5402963;29;20103;-89
2022/07/22 11:47:55;;;;;;;9.48;4.40;;;;;;;39.94;17.48;100348.69;5559870;32;33954;-88
2022/07/22 11:51:07;;;;;;;8.23;4.50;;;;;;;40.01;16.89;100341.75;5552133;32;33630;-90
2022/07/22 11:54:22;;;;;;;8.23;4.30;;;;;;;39.90;17.20;100337.25;5558294;32;34417;-90
2022/07/22 12:12:41;;;;;;;8.45;4.78;;;;;;;39.79;17.60;100307.81;5321640;30;20128;-90
2022/07/22 12:15:46;;;;;;;8.80;5.03;;;;;;;39.43;18.86;100306.59;5491469;32;33856;-90
2022/07/22 12:19:09;;;;;;;9.15;4.80;;;;;;;38.76;19.15;100306.25;5470728;32;33176;-90
2022/07/22 12:22:20;;;;;;;10.63;5.15;;;;;;;38.50;19.47;100295.78;5490027;32;35246;-88
2022/07/22 12:25:23;;;;;;;13.50;4.87;;;;;;;38.69;18.93;100303.72;5488523;32;33679;-89
2022/07/22 12:28:32;;;;;;;8.05;4.37;;;;;;;38.57;18.95;100290.06;5489260;32;34676;-89
2022/07/22 12:31:42;;;;;;;8.85;4.85;;;;;;;38.35;19.30;100285.44;5466854;32;32894;-89
2022/07/22 12:34:55;;;;;;;8.63;4.82;;;;;;;38.61;19.67;100291.19;5464130;32;33157;-88
2022/07/22 12:38:06;;;;;;;8.65;4.65;;;;;;;38.78;19.16;100282.72;5473304;32;34856;-88
2022/07/22 12:41:26;;;;;;;9.77;4.90;;;;;;;38.22;19.98;100277.59;5491882;32;34429;-88
2022/07/22 12:44:28;;;;;;;8.25;4.62;;;;;;;38.09;19.52;100276.09;5491888;32;35210;-89
2022/07/22 12:47:38;;;;;;;8.27;5.47;;;;;;;37.69;20.75;100262.41;5475837;32;33905;-89
2022/07/22 12:50:55;;;;;;;8.02;4.60;;;;;;;37.83;20.23;100264.75;5484580;32;33715;-89
2022/07/22 12:53:59;;;;;;;11.27;5.30;;;;;;;38.05;19.89;100258.31;5477082;32;33613;-87
2022/07/22 12:57:04;;;;;;;7.22;4.57;;;;;;;37.68;20.35;100258.00;5478574;32;33102;-89
2022/07/22 13:00:07;;;;;;;11.98;5.43;;;;;;;37.79;20.41;100247.84;5492263;32;34587;-88
2022/07/22 13:03:10;;;;;;;8.82;5.18;;;;;;;37.97;20.21;100251.31;5478594;32;33177;-89
2022/07/22 13:06:13;;;;;;;5.53;4.80;;;;;;;37.93;19.81;100242.72;5492568;32;34948;-89
2022/07/22 13:09:16;;;;;;;8.68;4.90;;;;;;;37.82;20.62;100238.19;5492107;32;33732;-88
2022/07/22 13:12:20;;;;;;;6.35;4.72;;;;;;;37.66;20.85;100237.22;5491374;32;34094;-91
2022/07/22 13:15:22;;;;;;;10.05;5.10;;;;;;;37.84;20.00;100239.59;5492830;32;35045;-92
2022/07/22 13:18:25;;;;;;;10.98;4.60;;;;;;;37.92;20.11;100235.53;5477707;32;34967;-92
2022/07/22 13:21:28;;;;;;;11.12;4.62;;;;;;;38.11;19.62;100229.59;5467467;32;32641;-92
2022/07/22 13:24:31;;;;;;;13.43;5.35;;;;;;;38.10;19.63;100230.72;5491827;32;34837;-90
2022/07/22 13:27:34;;;;;;;8.05;4.62;;;;;;;38.22;19.34;100222.22;5491248;32;34492;-89
2022/07/22 13:30:37;;;;;;;6.68;4.50;;;;;;;38.29;19.53;100223.66;5491512;32;33835;-89
2022/07/22 13:33:40;;;;;;;8.45;4.40;;;;;;;38.60;18.49;100225.78;5477893;32;32925;-89
2022/07/22 13:36:43;;;;;;;4.93;4.35;;;;;;;38.54;18.84;100224.09;5491513;32;34596;-89
2022/07/22 13:39:47;;;;;;;6.82;4.70;;;;;;;38.59;18.63;100224.13;5466162;32;33754;-89
2022/07/22 13:42:50;;;;;;;9.07;4.78;;;;;;;38.55;18.89;100221.06;5458115;32;33414;-89
2022/07/22 13:45:53;;;;;;;7.32;4.10;;;;;;;38.54;18.41;100222.19;5472193;32;33954;-88
2022/07/22 13:48:56;;;;;;;12.68;4.90;;;;;;;38.22;18.69;100216.66;5457907;32;34116;-87
2022/07/22 13:51:58;;;;;;;7.22;4.70;;;;;;;38.63;17.37;100219.72;5472071;32;34893;-88
2022/07/22 13:55:01;;;;;;;8.63;4.87;;;;;;;38.15;18.30;100220.50;5472172;32;34286;-88
2022/07/22 13:58:05;;;;;;;8.48;4.40;;;;;;;37.81;19.09;100209.66;5459024;32;32458;-88
2022/07/22 14:01:09;;;;;;;9.88;4.72;;;;;;;38.09;18.52;100209.63;5476831;32;33661;-88
2022/07/22 14:04:12;;;;;;;8.02;4.90;;;;;;;38.17;18.07;100213.84;5472490;32;33746;-88
2022/07/22 14:07:15;;;;;;;5.28;4.55;;;;;;;38.18;18.11;100207.22;5458416;32;34133;-88
2022/07/22 14:10:18;;;;;;;10.38;4.93;;;;;;;38.39;18.06;100202.66;5457793;32;32872;-88
2022/07/22 14:13:20;;;;;;;8.68;4.60;;;;;;;38.51;17.80;100205.22;5458672;32;32406;-88
2022/07/22 14:16:35;;;;;;;8.45;4.93;;;;;;;38.28;18.41;100199.84;5457808;32;32533;-88
2022/07/22 14:19:59;;;;;;;7.65;4.80;;;;;;;38.38;17.96;100199.06;5456920;32;34955;-88
2022/07/22 14:23:05;;;;;;;8.75;4.78;;;;;;;38.46;17.78;100196.87;5472771;32;33633;-88
2022/07/22 14:26:08;;;;;;;6.20;4.62;;;;;;;38.52;18.35;100193.03;5459057;32;32474;-89
2022/07/22 14:29:11;;;;;;;10.00;4.75;;;;;;;38.51;18.38;100196.91;5473414;32;34393;-89
2022/07/22 14:32:14;;;;;;;6.15;4.50;;;;;;;38.50;18.31;100185.00;5465947;32;33480;-86
2022/07/22 14:35:17;;;;;;;8.30;4.43;;;;;;;38.51;18.75;100191.38;5477820;32;33497;-88
2022/07/22 14:38:19;;;;;;;7.62;4.90;;;;;;;38.23;19.33;100185.09;5478797;32;33629;-88
2022/07/22 14:41:22;;;;;;;7.57;4.57;;;;;;;38.37;18.79;100186.31;5492773;32;33906;-88
2022/07/22 14:44:25;;;;;;;10.75;4.97;;;;;;;38.47;18.32;100177.22;5479433;32;32526;-88
2022/07/22 14:47:28;;;;;;;9.10;5.40;;;;;;;38.10;18.92;100172.56;5477246;32;32930;-87
2022/07/22 14:50:31;;;;;;;5.10;4.40;;;;;;;38.01;19.13;100177.75;5477480;32;33017;-87
2022/07/22 14:53:34;;;;;;;8.57;4.80;;;;;;;37.98;19.15;100179.09;5491664;32;34452;-88
2022/07/22 14:56:37;;;;;;;8.10;4.93;;;;;;;37.90;19.26;100171.28;5491651;32;33651;-89
2022/07/22 14:59:40;;;;;;;10.52;5.10;;;;;;;37.74;19.83;100175.84;5491501;32;33677;-86
2022/07/22 15:02:43;;;;;;;6.57;4.93;;;;;;;37.69;19.84;100175.81;5489898;32;33775;-87
2022/07/22 15:05:46;;;;;;;8.73;5.00;;;;;;;37.70;19.84;100167.25;5491128;32;33894;-88
2022/07/22 15:08:49;;;;;;;7.80;5.05;;;;;;;37.54;20.19;100165.44;5491665;32;34869;-88
2022/07/22 15:11:54;;;;;;;7.10;5.05;;;;;;;37.81;19.83;100170.91;5491106;32;34537;-87
2022/07/22 15:14:57;;;;;;;7.32;5.37;;;;;;;37.75;19.94;100166.44;5480358;32;33465;-92
2022/07/22 15:18:00;;;;;;;11.15;5.35;;;;;;;37.35;20.41;100161.09;5484285;32;33929;-92
2022/07/22 15:21:03;;;;;;;11.00;5.65;;;;;;;37.71;20.10;100165.31;5490499;32;35864;-91
2022/07/22 15:24:06;;;;;;;9.73;4.80;;;;;;;37.82;19.95;100166.22;5477439;32;32847;-89
2022/07/22 15:27:09;;;;;;;8.60;5.30;;;;;;;37.92;19.84;100169.09;5501213;32;33855;-88
2022/07/22 15:30:12;;;;;;;10.73;5.00;;;;;;;37.37;20.83;100157.22;5492090;32;33834;-88
2022/07/22 15:33:14;;;;;;;9.20;4.93;;;;;;;37.14;20.12;100168.34;5478056;32;32570;-87
2022/07/22 15:36:20;;;;;;;9.15;4.72;;;;;;;36.63;20.86;100165.75;5490882;32;33903;-87
2022/07/22 15:39:23;;;;;;;8.90;5.00;;;;;;;36.55;20.41;100158.75;5490721;32;33575;-88
2022/07/22 15:42:27;;;;;;;6.87;4.40;;;;;;;36.67;20.54;100161.41;5490289;32;35061;-88
2022/07/22 15:45:30;;;;;;;7.22;5.25;;;;;;;36.80;20.41;100149.97;5490466;32;34491;-88
2022/07/22 15:48:34;;;;;;;6.97;4.95;;;;;;;36.79;20.24;100148.28;5490201;32;33903;-88
2022/07/22 15:51:37;;;;;;;6.25;4.37;;;;;;;36.75;20.62;100147.12;5490711;32;34009;-88
